Terminal Aerodrome Forecast
Issued by NWS

Home | Current Version | Previous Version | Text Only | Print | Product List | Glossary On
Versions: 1 2 3 4 5 6 7 8 9 10 11 12 13 14 15
207
FTUS42 KFFC 170202 AAA
TAFRYY
TAF AMD
KRYY 170202Z 1702/1724 32010G18KT 5SM -SN BR SCT010 BKN025 OVC050
      TEMPO 1702/1705 2SM -SN BR BKN010
     FM170800 32014G25KT P6SM -SN SCT015 OVC060
     FM171200 32014G25KT P6SM SCT070
     FM171600 32018G30KT P6SM SKC=

USA.gov is the U.S. government's official web portal to all federal, state and local government web resources and services.